createdAt,value
2022-12-08T00:01:32.598Z,9.32
2022-12-08T00:04:01.859Z,8.32
2022-12-08T00:06:49.972Z,8.60
2022-12-08T00:09:27.177Z,6.83
2022-12-08T00:12:03.634Z,7.62
2022-12-08T00:14:46.547Z,8.68
2022-12-08T00:17:16.311Z,7.50
2022-12-08T00:19:44.944Z,8.73
2022-12-08T00:22:14.852Z,7.30
2022-12-08T00:24:45.660Z,8.10
2022-12-08T00:27:15.875Z,7.90
2022-12-08T00:29:44.941Z,11.05
2022-12-08T00:32:12.900Z,15.90
2022-12-08T00:34:40.382Z,14.17
2022-12-08T00:37:07.814Z,13.75
2022-12-08T00:39:35.539Z,12.57
2022-12-08T00:42:15.416Z,12.90
2022-12-08T00:44:45.077Z,13.45
2022-12-08T00:47:13.804Z,10.77
2022-12-08T00:49:41.561Z,11.48
2022-12-08T00:52:09.568Z,9.18
2022-12-08T00:54:37.362Z,9.52
2022-12-08T00:57:04.939Z,10.57
2022-12-08T00:59:32.665Z,8.13
2022-12-08T01:02:00.306Z,8.30
2022-12-08T01:04:27.666Z,8.05
2022-12-08T01:06:55.404Z,7.22
2022-12-08T01:09:22.994Z,8.13
2022-12-08T01:11:50.488Z,7.57
2022-12-08T01:14:18.206Z,7.75
2022-12-08T01:16:45.789Z,7.72
2022-12-08T01:19:15.008Z,7.07
2022-12-08T01:21:43.451Z,7.53
2022-12-08T01:24:13.507Z,7.90
2022-12-08T01:26:41.516Z,7.30
2022-12-08T01:29:10.166Z,8.00
2022-12-08T01:31:38.195Z,7.78
2022-12-08T01:34:06.408Z,8.05
2022-12-08T01:36:37.253Z,7.80
2022-12-08T01:39:08.327Z,7.62
2022-12-08T01:41:39.561Z,7.37
2022-12-08T01:44:08.288Z,7.80
2022-12-08T01:46:38.283Z,8.40
2022-12-08T01:49:13.715Z,7.93
2022-12-08T01:52:18.247Z,8.07
2022-12-08T01:54:58.046Z,8.40
2022-12-08T01:57:34.064Z,8.05
2022-12-08T02:00:08.194Z,8.25
2022-12-08T02:02:52.958Z,7.67
2022-12-08T02:05:27.062Z,6.78
2022-12-08T02:07:57.161Z,7.28
2022-12-08T02:10:29.141Z,6.93
2022-12-08T02:12:58.971Z,6.72
2022-12-08T02:15:39.522Z,6.80
2022-12-08T02:18:19.501Z,7.18
2022-12-08T02:20:58.382Z,7.05
2022-12-08T02:23:28.859Z,7.10
2022-12-08T02:26:22.520Z,6.82
2022-12-08T02:29:08.604Z,6.60
2022-12-08T02:31:57.510Z,6.60
2022-12-08T02:34:46.584Z,6.65
2022-12-08T02:37:25.265Z,8.20
2022-12-08T02:40:30.072Z,7.65
2022-12-08T02:43:03.429Z,7.13
2022-12-08T02:45:45.073Z,7.45
2022-12-08T02:48:12.643Z,7.20
2022-12-08T02:50:40.353Z,7.82
2022-12-08T02:55:58.118Z,7.70
2022-12-08T02:58:35.532Z,7.80
2022-12-08T03:01:19.518Z,7.97
2022-12-08T03:04:16.198Z,7.65
2022-12-08T03:07:06.417Z,8.13
2022-12-08T03:09:38.435Z,7.23
2022-12-08T03:12:18.924Z,7.25
2022-12-08T03:15:12.883Z,7.82
2022-12-08T03:17:45.815Z,7.22
2022-12-08T03:20:20.812Z,7.37
2022-12-08T03:22:50.556Z,7.17
2022-12-08T03:25:22.862Z,6.95
2022-12-08T03:27:51.792Z,7.30
2022-12-08T03:30:19.776Z,7.00
2022-12-08T03:33:01.837Z,6.85
2022-12-08T03:35:36.821Z,6.77
2022-12-08T03:38:13.919Z,6.35
2022-12-08T03:40:42.183Z,6.97
2022-12-08T03:43:10.302Z,7.10
2022-12-08T03:45:37.735Z,7.12
2022-12-08T03:48:05.650Z,7.10
2022-12-08T03:50:33.040Z,6.47
2022-12-08T03:53:00.502Z,7.12
2022-12-08T03:55:28.197Z,7.25
2022-12-08T03:57:55.639Z,7.75
2022-12-08T04:00:23.268Z,7.20
2022-12-08T04:02:51.088Z,6.35
2022-12-08T04:05:18.590Z,8.45
2022-12-08T04:07:46.027Z,8.02
2022-12-08T04:10:13.843Z,7.50
2022-12-08T04:12:41.270Z,7.50
2022-12-08T04:15:09.447Z,7.12
2022-12-08T04:17:37.150Z,7.75
2022-12-08T04:20:05.394Z,8.00
2022-12-08T04:22:33.072Z,7.53
2022-12-08T04:25:00.915Z,7.07
2022-12-08T04:27:28.431Z,7.57
2022-12-08T04:29:55.822Z,7.37
2022-12-08T04:32:23.515Z,7.95
2022-12-08T04:34:50.903Z,7.78
2022-12-08T04:37:18.318Z,6.90
2022-12-08T04:39:46.003Z,6.93
2022-12-08T04:42:13.396Z,7.20
2022-12-08T04:44:40.827Z,7.25
2022-12-08T04:47:08.537Z,7.93
2022-12-08T04:49:35.971Z,6.83
2022-12-08T04:52:03.498Z,7.35
2022-12-08T04:54:31.303Z,7.47
2022-12-08T04:56:58.741Z,7.60
2022-12-08T04:59:26.152Z,7.15
2022-12-08T05:01:54.010Z,7.70
2022-12-08T05:04:21.530Z,7.28
2022-12-08T05:06:48.933Z,7.62
2022-12-08T05:09:16.731Z,6.85
2022-12-08T05:11:48.865Z,8.02
2022-12-08T05:14:18.917Z,8.10
2022-12-08T05:16:47.024Z,7.72
2022-12-08T05:19:15.782Z,8.52
2022-12-08T05:21:44.294Z,8.55
2022-12-08T05:24:11.763Z,7.60
2022-12-08T05:26:39.293Z,7.23
2022-12-08T05:29:07.058Z,7.62
2022-12-08T05:31:34.570Z,8.20
2022-12-08T05:34:03.375Z,7.20
2022-12-08T05:36:31.508Z,8.48
2022-12-08T05:38:59.084Z,8.13
2022-12-08T05:41:26.659Z,7.45
2022-12-08T05:43:54.342Z,7.85
2022-12-08T05:46:22.140Z,7.50
2022-12-08T05:48:49.766Z,7.05
2022-12-08T05:51:23.345Z,7.93
2022-12-08T05:53:52.308Z,6.75
2022-12-08T05:56:20.429Z,6.97
2022-12-08T05:58:47.994Z,7.37
2022-12-08T06:01:30.423Z,7.45
2022-12-08T06:03:59.977Z,6.83
2022-12-08T06:06:28.368Z,7.37
2022-12-08T06:08:55.887Z,7.93
2022-12-08T06:11:27.098Z,7.05
2022-12-08T06:13:56.791Z,7.30
2022-12-08T06:16:26.420Z,7.07
2022-12-08T06:18:54.331Z,6.85
2022-12-08T06:21:21.925Z,7.37
2022-12-08T06:23:54.336Z,7.65
2022-12-08T06:26:22.702Z,7.90
2022-12-08T06:28:51.155Z,7.43
2022-12-08T06:31:21.803Z,7.72
2022-12-08T06:33:50.171Z,7.87
2022-12-08T06:36:19.860Z,7.78
2022-12-08T06:38:47.742Z,7.12
2022-12-08T06:41:15.200Z,7.70
2022-12-08T06:43:43.992Z,7.75
2022-12-08T06:46:15.246Z,6.75
2022-12-08T06:48:43.212Z,6.95
2022-12-08T06:51:17.458Z,7.30
2022-12-08T06:53:46.373Z,7.73
2022-12-08T06:56:15.950Z,7.37
2022-12-08T06:58:50.427Z,7.80
2022-12-08T07:01:20.084Z,7.62
2022-12-08T07:03:48.004Z,7.37
2022-12-08T07:06:18.639Z,7.70
2022-12-08T07:08:46.641Z,7.60
2022-12-08T07:11:19.588Z,7.85
2022-12-08T07:13:48.889Z,8.27
2022-12-08T07:16:16.702Z,7.93
2022-12-08T07:18:44.296Z,8.47
2022-12-08T07:21:14.914Z,8.35
2022-12-08T07:23:45.129Z,8.95
2022-12-08T07:26:13.435Z,8.23
2022-12-08T07:28:42.025Z,7.97
2022-12-08T07:31:26.157Z,8.43
2022-12-08T07:33:54.564Z,8.27
2022-12-08T07:36:22.493Z,8.38
2022-12-08T07:38:50.448Z,8.15
2022-12-08T07:41:23.343Z,8.90
2022-12-08T07:43:51.654Z,9.33
2022-12-08T07:46:22.125Z,8.50
2022-12-08T07:48:49.787Z,9.88
2022-12-08T07:51:17.332Z,9.80
2022-12-08T07:53:53.195Z,9.15
2022-12-08T07:56:22.299Z,9.23
2022-12-08T07:58:50.456Z,8.93
2022-12-08T08:01:22.271Z,9.63
2022-12-08T08:03:50.504Z,8.55
2022-12-08T08:06:18.174Z,10.18
2022-12-08T08:08:45.701Z,9.17
2022-12-08T08:11:20.898Z,9.50
2022-12-08T08:13:50.181Z,9.65
2022-12-08T08:16:18.871Z,8.50
2022-12-08T08:18:50.717Z,9.73
2022-12-08T08:24:08.755Z,9.20
2022-12-08T08:26:37.423Z,9.13
2022-12-08T08:29:04.910Z,9.73
2022-12-08T08:31:32.358Z,9.32
2022-12-08T08:34:05.028Z,10.07
2022-12-08T08:36:33.227Z,9.20
2022-12-08T08:39:01.009Z,10.18
2022-12-08T08:41:28.473Z,8.55
2022-12-08T08:43:55.894Z,10.50
2022-12-08T08:46:23.729Z,10.30
2022-12-08T08:48:51.168Z,9.40
2022-12-08T08:51:18.595Z,9.85
2022-12-08T08:53:46.375Z,10.45
2022-12-08T08:56:19.297Z,10.60
2022-12-08T08:58:48.741Z,9.23
2022-12-08T09:01:25.717Z,10.52
2022-12-08T09:03:54.436Z,9.00
2022-12-08T09:06:23.592Z,10.40
2022-12-08T09:08:51.430Z,9.95
2022-12-08T09:11:19.508Z,10.10
2022-12-08T09:13:51.218Z,10.65
2022-12-08T09:16:19.656Z,10.20
2022-12-08T09:18:49.371Z,10.68
2022-12-08T09:21:22.708Z,10.95
2022-12-08T09:23:55.609Z,10.53
2022-12-08T09:26:23.314Z,10.27
2022-12-08T09:28:52.512Z,10.55
2022-12-08T09:31:21.994Z,10.45
2022-12-08T09:33:53.235Z,10.80
2022-12-08T09:36:21.078Z,11.40
2022-12-08T09:38:50.311Z,10.75
2022-12-08T09:41:24.114Z,10.98
2022-12-08T09:44:25.786Z,10.15
2022-12-08T09:46:55.806Z,11.45
2022-12-08T09:49:37.190Z,10.63
2022-12-08T09:52:07.069Z,10.85
2022-12-08T09:54:36.030Z,10.88
2022-12-08T09:57:11.588Z,10.48
2022-12-08T09:59:41.444Z,10.73
2022-12-08T10:02:22.146Z,9.27
2022-12-08T10:04:50.408Z,10.40
2022-12-08T10:07:45.404Z,10.63
2022-12-08T10:10:18.823Z,9.40
2022-12-08T10:13:22.441Z,10.50
2022-12-08T10:16:02.196Z,9.50
2022-12-08T10:18:33.033Z,9.45
2022-12-08T10:21:14.994Z,9.98
2022-12-08T10:23:46.338Z,9.23
2022-12-08T10:26:17.020Z,9.05
2022-12-08T10:28:45.779Z,8.90
2022-12-08T10:31:19.699Z,9.73
2022-12-08T10:33:49.520Z,10.18
2022-12-08T10:36:17.219Z,9.68
2022-12-08T10:38:44.602Z,8.93
2022-12-08T10:41:11.908Z,8.10
2022-12-08T10:43:53.050Z,9.80
2022-12-08T10:46:25.900Z,9.48
2022-12-08T10:48:53.652Z,8.60
2022-12-08T10:51:28.485Z,7.78
2022-12-08T10:53:57.164Z,8.80
2022-12-08T10:56:28.448Z,8.30
2022-12-08T10:59:19.273Z,8.63
2022-12-08T11:01:49.707Z,8.48
2022-12-08T11:04:23.970Z,7.80
2022-12-08T11:06:52.931Z,7.90
2022-12-08T11:09:20.560Z,7.75
2022-12-08T11:11:50.788Z,7.68
2022-12-08T11:14:38.040Z,8.45
2022-12-08T11:17:15.429Z,7.32
2022-12-08T11:19:46.315Z,6.03
2022-12-08T11:22:32.316Z,7.05
2022-12-08T11:25:11.051Z,6.12
2022-12-08T11:27:46.523Z,5.65
2022-12-08T11:30:25.769Z,6.47
2022-12-08T11:32:57.392Z,5.97
2022-12-08T11:35:32.842Z,6.40
2022-12-08T11:38:23.123Z,6.65
2022-12-08T11:40:53.587Z,6.25
2022-12-08T11:43:30.320Z,6.70
2022-12-08T11:46:28.426Z,7.40
2022-12-08T11:49:06.959Z,8.05
2022-12-08T11:51:39.821Z,7.12
2022-12-08T11:54:29.848Z,7.43
2022-12-08T11:57:06.894Z,7.22
2022-12-08T11:59:41.806Z,7.10
2022-12-08T12:02:16.016Z,6.22
2022-12-08T12:04:50.826Z,8.13
2022-12-08T12:07:26.020Z,9.23
2022-12-08T12:10:09.090Z,7.65
2022-12-08T12:12:44.006Z,8.63
2022-12-08T12:15:26.135Z,7.70
2022-12-08T12:18:29.011Z,8.43
2022-12-08T12:21:07.075Z,7.68
2022-12-08T12:23:49.826Z,9.23
2022-12-08T12:26:26.438Z,7.83
2022-12-08T12:28:56.882Z,8.43
2022-12-08T12:31:37.091Z,8.50
2022-12-08T12:34:22.591Z,7.97
2022-12-08T12:37:03.756Z,7.43
2022-12-08T12:39:45.304Z,7.27
2022-12-08T12:42:38.094Z,7.45
2022-12-08T12:45:22.510Z,7.60
2022-12-08T12:47:56.296Z,6.32
2022-12-08T12:50:33.716Z,6.57
2022-12-08T12:53:09.168Z,6.80
2022-12-08T12:55:46.146Z,6.95
2022-12-08T12:58:23.098Z,6.85
2022-12-08T13:01:10.625Z,6.97
2022-12-08T13:04:09.369Z,7.62
2022-12-08T13:06:43.449Z,6.47
2022-12-08T13:09:37.523Z,7.03
2022-12-08T13:12:11.681Z,6.87
2022-12-08T13:14:49.481Z,8.02
2022-12-08T13:17:29.091Z,7.85
2022-12-08T13:20:00.360Z,8.23
2022-12-08T13:23:06.666Z,7.62
2022-12-08T13:25:40.142Z,6.97
2022-12-08T13:28:17.594Z,7.60
2022-12-08T13:30:46.974Z,8.68
2022-12-08T13:33:40.362Z,7.40
2022-12-08T13:36:15.119Z,7.22
2022-12-08T13:38:45.882Z,8.10
2022-12-08T13:41:20.707Z,7.53
2022-12-08T13:44:56.619Z,7.93
2022-12-08T13:47:32.809Z,8.10
2022-12-08T13:51:10.472Z,7.40
2022-12-08T13:58:35.443Z,8.35
2022-12-08T14:01:17.689Z,7.33
2022-12-08T14:04:12.472Z,8.57
2022-12-08T14:06:42.646Z,7.37
2022-12-08T14:09:19.350Z,8.07
2022-12-08T14:11:52.619Z,7.87
2022-12-08T14:14:53.735Z,7.77
2022-12-08T14:17:17.836Z,7.85
2022-12-08T14:20:12.786Z,8.25
2022-12-08T14:22:41.895Z,7.78
2022-12-08T14:25:15.598Z,8.43
2022-12-08T14:27:43.689Z,7.53
2022-12-08T14:30:14.540Z,7.32
2022-12-08T14:32:41.871Z,8.30
2022-12-08T14:35:09.250Z,8.23
2022-12-08T14:37:41.439Z,9.27
2022-12-08T14:40:22.751Z,7.93
2022-12-08T14:43:07.937Z,9.18
2022-12-08T14:45:41.460Z,8.52
2022-12-08T14:48:38.781Z,8.38
2022-12-08T14:51:17.229Z,9.07
2022-12-08T14:54:05.300Z,7.90
2022-12-08T14:56:36.789Z,8.18
2022-12-08T14:59:22.979Z,8.30
2022-12-08T15:01:53.236Z,7.97
2022-12-08T15:04:28.975Z,7.55
2022-12-08T15:07:05.548Z,8.13
2022-12-08T15:09:42.353Z,7.30
2022-12-08T15:12:12.819Z,7.62
2022-12-08T15:14:42.774Z,6.82
2022-12-08T15:17:40.048Z,7.35
2022-12-08T15:20:33.395Z,8.07
2022-12-08T15:23:03.282Z,6.82
2022-12-08T15:25:31.497Z,7.15
2022-12-08T15:27:58.973Z,6.85
2022-12-08T15:30:26.622Z,8.05
2022-12-08T15:32:56.139Z,7.40
2022-12-08T15:35:23.685Z,7.62
2022-12-08T15:37:51.221Z,8.10
2022-12-08T15:40:22.934Z,7.62
2022-12-08T15:42:50.349Z,8.35
2022-12-08T15:45:17.847Z,7.87
2022-12-08T15:47:45.731Z,7.90
2022-12-08T15:50:18.345Z,7.37
2022-12-08T15:52:47.042Z,8.05
2022-12-08T15:55:16.197Z,9.15
2022-12-08T16:00:52.295Z,8.23
2022-12-08T16:09:36.259Z,9.18
2022-12-08T16:12:23.985Z,9.00
2022-12-08T16:17:40.819Z,9.70
2022-12-08T16:20:14.434Z,11.20
2022-12-08T16:22:54.449Z,11.20
2022-12-08T16:25:36.414Z,10.47
2022-12-08T16:28:45.077Z,9.32
2022-12-08T16:31:01.902Z,9.57
2022-12-08T16:33:29.293Z,9.80
2022-12-08T16:35:56.896Z,9.45
2022-12-08T16:38:24.621Z,8.83
2022-12-08T16:41:10.852Z,8.95
2022-12-08T16:43:38.578Z,9.15
2022-12-08T16:46:06.278Z,9.88
2022-12-08T16:48:34.715Z,9.35
2022-12-08T16:51:04.638Z,9.87
2022-12-08T16:53:32.154Z,10.05
2022-12-08T16:55:59.654Z,9.25
2022-12-08T16:58:27.354Z,9.80
2022-12-08T17:00:54.846Z,10.63
2022-12-08T17:03:22.387Z,9.83
2022-12-08T17:05:50.137Z,9.93
2022-12-08T17:08:17.642Z,11.52
2022-12-08T17:11:05.090Z,10.63
2022-12-08T17:13:33.962Z,10.50
2022-12-08T17:16:01.458Z,9.60
2022-12-08T17:18:29.224Z,10.10
2022-12-08T17:20:56.983Z,9.60
2022-12-08T17:23:24.397Z,9.40
2022-12-08T17:26:02.048Z,9.93
2022-12-08T17:28:51.941Z,9.50
2022-12-08T17:31:17.972Z,10.82
2022-12-08T17:33:46.011Z,11.75
2022-12-08T17:36:16.802Z,11.85
2022-12-08T17:38:44.412Z,10.57
2022-12-08T17:41:12.437Z,11.43
2022-12-08T17:43:40.030Z,10.32
2022-12-08T17:46:07.563Z,10.63
2022-12-08T17:48:35.729Z,9.13
2022-12-08T17:51:03.309Z,11.70
2022-12-08T17:53:37.081Z,17.33
2022-12-08T17:56:05.626Z,21.35
2022-12-08T17:58:33.116Z,28.62
2022-12-08T18:01:00.928Z,24.87
2022-12-08T18:03:28.868Z,27.52
2022-12-08T18:05:56.319Z,27.90
2022-12-08T18:08:23.819Z,24.63
2022-12-08T18:10:51.558Z,18.80
2022-12-08T18:13:19.018Z,11.93
2022-12-08T18:15:46.437Z,11.80
2022-12-08T18:18:14.233Z,11.07
2022-12-08T18:20:41.675Z,11.68
2022-12-08T18:23:09.117Z,13.23
2022-12-08T18:25:36.832Z,13.15
2022-12-08T18:28:04.455Z,13.48
2022-12-08T18:30:32.063Z,13.80
2022-12-08T18:32:59.899Z,15.85
2022-12-08T18:35:28.847Z,16.37
2022-12-08T18:37:56.288Z,17.80
2022-12-08T18:40:24.313Z,18.55
2022-12-08T18:42:51.803Z,19.00
2022-12-08T18:45:22.525Z,17.40
2022-12-08T18:47:51.778Z,15.05
2022-12-08T18:50:19.290Z,13.30
2022-12-08T18:52:47.224Z,13.02
2022-12-08T18:55:15.663Z,11.57
2022-12-08T18:57:43.430Z,10.77
2022-12-08T19:00:13.995Z,11.50
2022-12-08T19:02:42.270Z,10.30
2022-12-08T19:05:11.735Z,10.05
2022-12-08T19:07:39.790Z,10.57
2022-12-08T19:10:08.512Z,9.00
2022-12-08T19:12:36.146Z,9.73
2022-12-08T19:15:04.736Z,9.77
2022-12-08T19:17:32.873Z,10.38
2022-12-08T19:20:00.362Z,21.13
2022-12-08T19:22:27.893Z,26.75
2022-12-08T19:24:55.659Z,28.50
2022-12-08T19:27:23.415Z,26.50
2022-12-08T19:29:50.870Z,26.55
2022-12-08T19:32:18.616Z,25.13
2022-12-08T19:34:46.211Z,24.00
2022-12-08T19:37:13.790Z,23.10
2022-12-08T19:40:00.115Z,20.85
2022-12-08T19:42:46.208Z,22.50
2022-12-08T19:45:17.404Z,19.87
2022-12-08T19:47:45.015Z,19.67
2022-12-08T19:50:34.126Z,19.58
2022-12-08T19:53:06.234Z,18.80
2022-12-08T19:55:34.046Z,21.77
2022-12-08T19:58:02.022Z,17.23
2022-12-08T20:00:31.471Z,16.27
2022-12-08T20:03:02.089Z,17.37
2022-12-08T20:05:30.698Z,16.30
2022-12-08T20:07:58.464Z,16.87
2022-12-08T20:10:33.780Z,17.20
2022-12-08T20:13:20.708Z,17.85
2022-12-08T20:15:48.548Z,22.83
2022-12-08T20:18:17.003Z,23.17
2022-12-08T20:20:46.605Z,23.42
2022-12-08T20:23:15.724Z,21.80
2022-12-08T20:25:45.601Z,20.20
2022-12-08T20:28:13.099Z,19.37
2022-12-08T20:30:42.804Z,18.15
2022-12-08T20:33:13.296Z,17.83
2022-12-08T20:35:41.590Z,17.80
2022-12-08T20:38:09.756Z,16.67
2022-12-08T20:40:40.969Z,18.67
2022-12-08T20:43:08.644Z,20.48
2022-12-08T20:45:36.582Z,28.02
2022-12-08T20:48:04.659Z,28.13
2022-12-08T20:50:32.448Z,31.35
2022-12-08T20:53:00.253Z,33.53
2022-12-08T20:55:28.034Z,30.90
2022-12-08T20:57:56.207Z,31.40
2022-12-08T21:00:26.078Z,31.03
2022-12-08T21:02:56.840Z,30.80
2022-12-08T21:05:25.053Z,30.58
2022-12-08T21:07:52.783Z,34.22
2022-12-08T21:10:20.457Z,34.40
2022-12-08T21:12:48.224Z,26.77
2022-12-08T21:15:15.848Z,19.52
2022-12-08T21:17:43.522Z,19.02
2022-12-08T21:20:12.043Z,19.73
2022-12-08T21:22:40.389Z,19.85
2022-12-08T21:25:09.219Z,21.77
2022-12-08T21:27:38.405Z,20.70
2022-12-08T21:30:07.740Z,21.42
2022-12-08T21:32:37.489Z,23.90
2022-12-08T21:35:06.269Z,28.10
2022-12-08T21:37:34.029Z,31.17
2022-12-08T21:40:01.729Z,28.65
2022-12-08T21:42:45.161Z,28.95
2022-12-08T21:45:15.876Z,29.63
2022-12-08T21:47:44.577Z,31.87
2022-12-08T21:50:13.630Z,28.53
2022-12-08T21:52:43.405Z,23.62
2022-12-08T21:55:13.058Z,25.62
2022-12-08T21:57:40.718Z,21.98
2022-12-08T22:00:10.934Z,20.70
2022-12-08T22:02:39.141Z,19.03
2022-12-08T22:05:07.470Z,17.75
2022-12-08T22:07:38.331Z,18.70
2022-12-08T22:10:07.881Z,20.33
2022-12-08T22:12:36.820Z,21.23
2022-12-08T22:15:06.112Z,20.90
2022-12-08T22:17:41.167Z,21.12
2022-12-08T22:20:12.932Z,18.55
2022-12-08T22:22:40.929Z,16.30
2022-12-08T22:25:12.632Z,16.02
2022-12-08T22:27:41.653Z,15.07
2022-12-08T22:30:10.874Z,14.90
2022-12-08T22:32:39.247Z,13.95
2022-12-08T22:35:06.982Z,12.18
2022-12-08T22:37:35.074Z,13.45
2022-12-08T22:40:02.564Z,12.27
2022-12-08T22:42:30.216Z,13.52
2022-12-08T22:44:57.929Z,11.95
2022-12-08T22:47:25.389Z,11.55
2022-12-08T22:49:52.978Z,12.77
2022-12-08T22:52:20.787Z,11.83
2022-12-08T22:54:48.260Z,11.57
2022-12-08T22:57:15.891Z,11.60
2022-12-08T22:59:43.773Z,11.05
2022-12-08T23:02:12.791Z,11.10
2022-12-08T23:04:40.497Z,9.60
2022-12-08T23:07:08.378Z,12.20
2022-12-08T23:09:36.022Z,10.50
2022-12-08T23:12:04.661Z,11.90
2022-12-08T23:14:32.512Z,10.90
2022-12-08T23:17:00.301Z,10.83
2022-12-08T23:19:27.967Z,10.52
2022-12-08T23:21:55.762Z,11.23
2022-12-08T23:24:23.241Z,11.73
2022-12-08T23:26:50.701Z,12.27
2022-12-08T23:29:18.435Z,10.53
2022-12-08T23:31:46.003Z,10.77
2022-12-08T23:34:13.899Z,9.60
2022-12-08T23:36:41.848Z,9.27
2022-12-08T23:39:10.843Z,10.45
2022-12-08T23:41:38.307Z,9.50
2022-12-08T23:44:06.598Z,10.38
2022-12-08T23:46:34.110Z,9.68
2022-12-08T23:49:01.900Z,9.45
2022-12-08T23:51:29.837Z,9.70
2022-12-08T23:53:57.242Z,9.40
2022-12-08T23:56:30.003Z,9.95
2022-12-08T23:58:58.485Z,9.40
